La Molina, Catalunya

latitud = 42° 19' 57''N | longitud = 001° 56' 22''E
1703 metros sobre el nivel del mar | datos mensuales

Fecha, hora, temperatura, viento dirección y velocidad, humedad y presión.

  • 21-06-2018 22:00:00 | 16.70°C | Sudoeste |5.00 km/h | 71.00% | 836.50 hPa
  • 21-06-2018 21:00:00 | 17.80°C | Noroeste |2.00 km/h | 74.00% | 836.10 hPa
  • 21-06-2018 20:00:00 | 19.00°C | Oeste |4.00 km/h | 65.00% | 835.80 hPa
  • 21-06-2018 19:00:00 | 19.70°C | Sur |10.00 km/h | 64.00% | 835.80 hPa
  • 21-06-2018 18:00:00 | 18.50°C | Sur |14.00 km/h | 63.00% | 836.00 hPa
  • 21-06-2018 17:00:00 | 19.50°C | Sudeste |11.00 km/h | 59.00% | 836.20 hPa
  • 21-06-2018 16:00:00 | 21.80°C | Sudeste |10.00 km/h | 55.00% | 836.20 hPa
  • 21-06-2018 15:00:00 | 20.80°C | Sudeste |9.00 km/h | 56.00% | 836.30 hPa
  • 21-06-2018 14:00:00 | 21.70°C | Sudeste |5.00 km/h | 50.00% | 836.30 hPa
  • 21-06-2018 13:00:00 | 19.50°C | Sudoeste |5.00 km/h | 57.00% | 836.60 hPa
  • 21-06-2018 12:00:00 | 20.00°C | Este |8.00 km/h | 55.00% | 836.50 hPa
  • 21-06-2018 11:00:00 | 20.40°C | Nordeste |3.00 km/h | 51.00% | 836.40 hPa
  • 21-06-2018 10:00:00 | 18.90°C | Noroeste |6.00 km/h | 53.00% | 836.60 hPa
  • 21-06-2018 09:00:00 | 17.10°C | Calma |0.00 km/h | 68.00% | 836.60 hPa
  • 21-06-2018 08:00:00 | 14.10°C | Sudeste |3.00 km/h | 82.00% | 836.50 hPa
  • 21-06-2018 07:00:00 | 11.10°C | Sudeste |5.00 km/h | 92.00% | 836.50 hPa
  • 21-06-2018 06:00:00 | 11.10°C | Sudeste |6.00 km/h | 92.00% | 836.40 hPa
  • 21-06-2018 05:00:00 | 11.70°C | Sudeste |6.00 km/h | 91.00% | 836.60 hPa
  • 21-06-2018 04:00:00 | 11.80°C | Sudeste |6.00 km/h | 91.00% | 836.90 hPa
  • 21-06-2018 03:00:00 | 12.10°C | Sudeste |6.00 km/h | 90.00% | 837.20 hPa
  • 21-06-2018 02:00:00 | 13.10°C | Sudeste |3.00 km/h | 86.00% | 837.40 hPa
  • 21-06-2018 01:00:00 | 13.20°C | Sudeste |6.00 km/h | 87.00% | 837.50 hPa
  • 21-06-2018 00:00:00 | 13.20°C | Sudeste |5.00 km/h | 85.00% | 837.60 hPa
  • 20-06-2018 23:00:00 | 14.40°C | Sudeste |5.00 km/h | 80.00% | 837.70 hPa